DYW weather

Daly Waters Airport
Daly Waters, Northern Territory, Australia

Public forecast

Using degrees Celsius for public forecast. Weather courtesy of forecast.io.

Closest aviation weather report (METAR) to Daly Waters Airport

Closest report is Tindal Airport, 119.8 nm (221.8 km) NNW. Retrieved 2019/12/07 06:30 UTC (0 seconds ago):

YPTN 070630Z AUTO 14008KT 9999 // NCD 42/04 Q1005

Closest aviation forecast (TAF) to Daly Waters Airport

Closest forecast is Tindal Airport, 119.8 nm (221.8 km) NNW. Retrieved 2019/12/07 06:00 UTC (22 minutes ago):

TAF YPTN 070508Z 0706/0806 06008KT CAVOK FM071400 34010KT CAVOK